Time;durP1;ratioP1;P1;durP2;ratioP2;P2;SDS_P1;SDS_P2;PMS_P1;PMS_P2;Temp;Humidity;BMP_temperature;BMP_pressure;BME280_temperature;BME280_humidity;BME280_pressure;Samples;Min_cycle;Max_cycle;Signal;HPM_P1;HPM_P2
2023/07/14 00:02:01;;;;;;;5.05;2.88;;;;;;;16.56;100.00;101524.63;6204298;28;20066;-72
2023/07/14 00:05:03;;;;;;;5.45;2.90;;;;;;;16.56;100.00;101524.63;6203478;28;20046;-72
2023/07/14 00:08:07;;;;;;;4.40;2.60;;;;;;;16.47;100.00;101526.06;6200245;28;20061;-72
2023/07/14 00:11:13;;;;;;;4.18;2.40;;;;;;;16.53;100.00;101524.81;6185755;28;20054;-71
2023/07/14 00:14:15;;;;;;;5.20;2.72;;;;;;;16.44;100.00;101524.47;6197878;28;20073;-72
2023/07/14 00:17:18;;;;;;;2.85;2.22;;;;;;;16.42;100.00;101515.75;6201390;28;20054;-71
2023/07/14 00:20:23;;;;;;;3.42;2.40;;;;;;;16.34;100.00;101518.06;6201456;28;20046;-72
2023/07/14 00:23:25;;;;;;;5.55;2.80;;;;;;;16.30;100.00;101519.19;6201018;28;20129;-72
2023/07/14 00:26:27;;;;;;;3.28;2.85;;;;;;;16.23;100.00;101512.63;6200560;28;20145;-72
2023/07/14 00:29:35;;;;;;;5.63;2.75;;;;;;;16.21;100.00;101510.06;6187355;28;20038;-72
2023/07/14 00:32:39;;;;;;;5.50;2.83;;;;;;;16.20;100.00;101510.16;6185365;28;20260;-72
2023/07/14 00:35:41;;;;;;;3.95;2.53;;;;;;;16.26;100.00;101516.84;6185252;28;20435;-71
2023/07/14 00:38:42;;;;;;;4.10;2.42;;;;;;;16.19;100.00;101509.31;6186231;28;20047;-72
2023/07/14 00:41:45;;;;;;;3.80;2.75;;;;;;;16.21;100.00;101510.06;6189044;28;20042;-72
2023/07/14 00:44:48;;;;;;;4.40;2.88;;;;;;;16.19;100.00;101508.44;6188366;28;20046;-72
2023/07/14 00:47:55;;;;;;;3.80;2.58;;;;;;;16.18;100.00;101507.59;6186332;28;20050;-72
2023/07/14 00:51:03;;;;;;;4.32;2.58;;;;;;;16.15;100.00;101506.94;6192935;28;20474;-72
2023/07/14 00:54:04;;;;;;;11.75;2.63;;;;;;;16.11;100.00;101511.59;6181506;28;20047;-72
2023/07/14 00:57:06;;;;;;;4.82;2.80;;;;;;;16.08;100.00;101506.50;6181862;28;20051;-72
2023/07/14 01:00:29;;;;;;;4.78;2.97;;;;;;;16.09;100.00;101507.34;6188756;28;20046;-72
2023/07/14 01:03:39;;;;;;;4.30;2.97;;;;;;;16.06;100.00;101513.69;6192634;28;20494;-72
2023/07/14 01:06:41;;;;;;;6.40;2.90;;;;;;;16.06;100.00;101499.59;6192964;28;20359;-72
2023/07/14 01:09:44;;;;;;;4.32;2.42;;;;;;;16.03;100.00;101494.47;6193091;28;20049;-72
2023/07/14 01:12:49;;;;;;;3.22;2.17;;;;;;;15.98;100.00;101500.06;6199988;28;20043;-72
2023/07/14 01:15:52;;;;;;;8.88;3.25;;;;;;;15.94;100.00;101494.13;6194228;28;20050;-72
2023/07/14 01:18:56;;;;;;;5.28;3.03;;;;;;;15.92;100.00;101489.88;6201016;28;20042;-72
2023/07/14 01:22:07;;;;;;;6.55;3.22;;;;;;;15.94;100.00;101491.47;6200381;28;20354;-72
2023/07/14 01:25:18;;;;;;;5.63;3.22;;;;;;;15.93;100.00;101500.34;6195015;28;20050;-72
2023/07/14 01:28:21;;;;;;;5.50;3.35;;;;;;;15.92;100.00;101498.66;6183399;28;20042;-72
2023/07/14 01:31:24;;;;;;;8.50;3.10;;;;;;;15.89;100.00;101492.69;6202574;28;20434;-72
2023/07/14 01:34:28;;;;;;;5.15;3.28;;;;;;;15.86;100.00;101488.47;6204683;28;20039;-72
2023/07/14 01:37:29;;;;;;;5.00;3.22;;;;;;;15.86;100.00;101491.13;6205080;28;20082;-72
2023/07/14 01:40:34;;;;;;;6.05;2.92;;;;;;;15.84;100.00;101487.69;6204770;28;20053;-72
2023/07/14 01:43:37;;;;;;;5.90;3.22;;;;;;;15.82;100.00;101491.41;6204319;28;20047;-72
2023/07/14 01:46:38;;;;;;;6.57;3.35;;;;;;;15.80;100.00;101495.94;6204602;28;20139;-72
2023/07/14 01:49:45;;;;;;;4.60;3.50;;;;;;;15.73;100.00;101498.13;6204651;28;20054;-71
2023/07/14 01:52:48;;;;;;;6.43;3.47;;;;;;;15.79;100.00;101496.88;6205068;28;20042;-72
2023/07/14 01:55:53;;;;;;;6.32;3.88;;;;;;;15.79;100.00;101489.78;6194201;28;20054;-72
2023/07/14 01:59:01;;;;;;;6.05;3.45;;;;;;;15.73;100.00;101495.50;6197987;28;20477;-72
2023/07/14 02:02:04;;;;;;;8.30;4.05;;;;;;;15.75;100.00;101492.72;6204129;28;20038;-71
2023/07/14 02:05:16;;;;;;;6.03;3.78;;;;;;;15.73;100.00;101491.03;6204290;28;20129;-71
2023/07/14 02:08:23;;;;;;;6.45;3.95;;;;;;;15.73;100.00;101495.50;6204091;28;20057;-72
2023/07/14 02:11:26;;;;;;;7.95;4.50;;;;;;;15.69;100.00;101497.47;6202485;28;20077;-72
2023/07/14 02:14:37;;;;;;;8.02;4.35;;;;;;;15.69;100.00;101494.81;6181293;28;20094;-72
2023/07/14 02:17:39;;;;;;;9.95;4.68;;;;;;;15.70;100.00;101498.31;6203575;28;20050;-72
2023/07/14 02:20:42;;;;;;;6.78;4.03;;;;;;;15.70;100.00;101493.03;6203433;28;20054;-71
2023/07/14 02:23:44;;;;;;;8.13;4.95;;;;;;;15.66;100.00;101492.34;6195802;28;20038;-72
2023/07/14 02:26:50;;;;;;;6.90;4.13;;;;;;;15.64;100.00;101491.63;6202510;28;20177;-72
2023/07/14 02:29:53;;;;;;;8.70;3.80;;;;;;;15.61;100.00;101505.00;6187477;28;20454;-72
2023/07/14 02:32:59;;;;;;;8.25;4.38;;;;;;;15.61;100.00;101505.00;6188578;28;20044;-72
2023/07/14 02:36:10;;;;;;;11.82;5.50;;;;;;;15.60;100.00;101505.13;6191893;28;20477;-72
2023/07/14 02:39:11;;;;;;;11.95;5.45;;;;;;;15.58;100.00;101499.91;6179367;28;20046;-72
2023/07/14 02:42:12;;;;;;;8.77;4.15;;;;;;;15.58;100.00;101499.03;6198986;28;20358;-72
2023/07/14 02:45:19;;;;;;;8.40;5.20;;;;;;;15.56;100.00;101495.66;6203365;28;20046;-72
2023/07/14 02:48:26;;;;;;;7.10;4.45;;;;;;;15.48;100.00;101512.00;6203433;28;20058;-72
2023/07/14 02:51:28;;;;;;;12.13;4.85;;;;;;;15.41;100.00;101506.25;6203183;28;20061;-72
2023/07/14 02:54:29;;;;;;;7.82;5.15;;;;;;;15.38;100.00;101497.63;6202991;28;20038;-72
2023/07/14 02:57:30;;;;;;;7.93;4.82;;;;;;;15.36;100.00;101500.41;6202922;28;20057;-72
2023/07/14 03:00:34;;;;;;;9.15;4.53;;;;;;;15.37;100.00;101504.72;6203102;28;20053;-72
2023/07/14 03:03:37;;;;;;;10.23;4.93;;;;;;;15.35;100.00;101498.69;6202553;28;20038;-72
2023/07/14 03:06:38;;;;;;;9.32;4.78;;;;;;;15.36;100.00;101505.69;6194979;28;20042;-72
2023/07/14 03:09:40;;;;;;;10.23;4.95;;;;;;;15.31;100.00;101499.81;6176574;28;20050;-71
2023/07/14 03:12:41;;;;;;;8.88;5.43;;;;;;;15.29;100.00;101507.00;6181873;28;20072;-72
2023/07/14 03:15:44;;;;;;;10.57;5.15;;;;;;;15.29;100.00;101506.16;6182393;28;20042;-72
2023/07/14 03:18:46;;;;;;;8.55;5.38;;;;;;;15.25;100.00;101505.47;6185035;28;20081;-72
2023/07/14 03:21:47;;;;;;;13.80;4.68;;;;;;;15.24;100.00;101498.47;6192572;28;20522;-72
2023/07/14 03:24:49;;;;;;;9.00;5.57;;;;;;;15.20;100.00;101483.72;6186068;28;20046;-72
2023/07/14 03:27:50;;;;;;;13.82;5.63;;;;;;;15.21;100.00;101486.31;6186584;28;20042;-72
2023/07/14 03:30:53;;;;;;;13.27;4.93;;;;;;;15.22;100.00;101492.44;6195438;28;20438;-72
2023/07/14 03:33:54;;;;;;;9.52;4.93;;;;;;;15.23;100.00;101495.00;6197030;28;20260;-72
2023/07/14 03:36:56;;;;;;;10.85;5.68;;;;;;;15.27;100.00;101486.88;6196523;28;20451;-72
2023/07/14 03:39:57;;;;;;;9.73;4.78;;;;;;;15.27;100.00;101490.38;6193488;28;20048;-72
2023/07/14 03:42:59;;;;;;;7.68;4.80;;;;;;;15.25;100.00;101488.75;6195872;28;20042;-72
2023/07/14 03:46:02;;;;;;;10.13;4.85;;;;;;;15.28;100.00;101483.25;6197796;28;20145;-72
2023/07/14 03:49:03;;;;;;;9.65;4.55;;;;;;;15.27;100.00;101477.13;6180165;28;20058;-72
2023/07/14 03:52:05;;;;;;;10.70;4.75;;;;;;;15.26;100.00;101474.53;6188311;28;20051;-78
2023/07/14 03:55:08;;;;;;;7.88;4.63;;;;;;;15.29;100.00;101475.22;6184074;28;20050;-79
2023/07/14 03:58:09;;;;;;;10.80;4.82;;;;;;;15.28;100.00;101481.47;6188912;28;20136;-78
2023/07/14 04:01:13;;;;;;;8.15;4.78;;;;;;;15.28;100.00;101473.53;6190539;28;20043;-78
2023/07/14 04:04:15;;;;;;;8.98;5.13;;;;;;;15.28;100.00;101462.94;6188263;28;20042;-78
2023/07/14 04:07:17;;;;;;;12.00;5.25;;;;;;;15.26;100.00;101483.38;6186202;28;20039;-79
2023/07/14 04:10:19;;;;;;;10.77;4.45;;;;;;;15.35;100.00;101476.63;6186207;28;20375;-79
2023/07/14 04:13:20;;;;;;;9.15;5.03;;;;;;;15.33;100.00;101482.03;6192095;28;20043;-78
2023/07/14 04:16:23;;;;;;;16.42;3.83;;;;;;;15.35;100.00;101489.88;6189682;28;20055;-78
2023/07/14 04:19:25;;;;;;;9.35;4.97;;;;;;;15.33;100.00;101494.41;6196380;28;20047;-78
2023/07/14 04:22:26;;;;;;;7.25;4.65;;;;;;;15.32;100.00;101496.22;6198994;28;20122;-78
2023/07/14 04:25:27;;;;;;;10.25;4.70;;;;;;;15.39;100.00;101494.03;6195609;28;20050;-78
2023/07/14 04:28:29;;;;;;;7.30;4.63;;;;;;;15.40;100.00;101499.25;6205544;28;20050;-78
2023/07/14 04:31:32;;;;;;;8.35;5.18;;;;;;;15.45;100.00;101493.69;6180611;28;20054;-79
2023/07/14 04:34:36;;;;;;;9.77;4.57;;;;;;;15.46;100.00;101490.06;6191769;28;20346;-78
2023/07/14 04:37:37;;;;;;;14.00;5.85;;;;;;;15.41;100.00;101498.31;6208400;28;20042;-79
2023/07/14 04:40:40;;;;;;;13.05;5.32;;;;;;;15.47;100.00;101491.78;6184297;28;20050;-78
2023/07/14 04:43:41;;;;;;;8.50;5.30;;;;;;;15.49;100.00;101492.53;6192415;28;20053;-78
2023/07/14 04:46:46;;;;;;;7.22;4.35;;;;;;;15.57;100.00;101497.34;6201072;28;20050;-78
2023/07/14 04:49:47;;;;;;;9.35;4.88;;;;;;;15.60;100.00;101497.16;6184750;28;20063;-78
2023/07/14 04:52:48;;;;;;;8.85;5.22;;;;;;;15.67;100.00;101495.88;6193506;28;20046;-78
2023/07/14 04:55:50;;;;;;;8.18;4.35;;;;;;;15.70;100.00;101495.66;6201006;28;20363;-78
2023/07/14 04:58:51;;;;;;;4.50;3.45;;;;;;;15.72;100.00;101497.28;6242291;23;20046;-72
2023/07/14 05:01:54;;;;;;;9.18;3.72;;;;;;;15.73;100.00;101493.69;6229703;28;20045;-73
2023/07/14 05:05:11;;;;;;;9.63;5.20;;;;;;;15.72;100.00;101492.00;6247708;28;20135;-73
2023/07/14 05:08:12;;;;;;;10.30;4.32;;;;;;;15.76;100.00;101505.91;6254263;28;20077;-73
2023/07/14 05:11:14;;;;;;;8.30;4.22;;;;;;;15.82;100.00;101497.56;6254260;28;20049;-73
2023/07/14 05:14:16;;;;;;;5.35;3.80;;;;;;;15.87;100.00;101494.63;6253863;28;20041;-72
2023/07/14 05:17:18;;;;;;;7.15;4.68;;;;;;;15.94;100.00;101493.25;6254261;28;20061;-72
2023/07/14 05:20:20;;;;;;;9.68;4.95;;;;;;;15.92;100.00;101503.97;6254127;28;20052;-73
2023/07/14 05:23:22;;;;;;;8.48;4.70;;;;;;;15.97;100.00;101501.03;6247215;28;20042;-72
2023/07/14 05:26:23;;;;;;;7.78;4.00;;;;;;;16.04;100.00;101496.19;6234449;28;20056;-73
2023/07/14 05:29:25;;;;;;;10.48;4.93;;;;;;;16.06;100.00;101503.09;6253980;28;20124;-73
2023/07/14 05:32:28;;;;;;;10.18;4.38;;;;;;;16.08;100.00;101500.31;6253626;28;20046;-73
2023/07/14 05:35:30;;;;;;;9.88;4.65;;;;;;;16.11;100.00;101494.84;6253938;28;20041;-73
2023/07/14 05:38:31;;;;;;;7.13;4.45;;;;;;;16.12;100.00;101494.72;6253901;28;20048;-73
2023/07/14 05:41:33;;;;;;;7.32;4.28;;;;;;;16.13;100.00;101491.16;6250384;28;20045;-73
2023/07/14 05:44:34;;;;;;;9.38;3.90;;;;;;;16.19;100.00;101497.84;6239387;28;20049;-73
2023/07/14 05:47:39;;;;;;;11.25;4.47;;;;;;;16.23;100.00;101494.91;6236168;28;20050;-73
2023/07/14 05:50:40;;;;;;;7.38;4.03;;;;;;;16.24;100.00;101496.59;6236417;28;20133;-73
2023/07/14 05:53:42;;;;;;;9.80;4.70;;;;;;;16.30;100.00;101490.03;6235771;28;20042;-73
2023/07/14 05:56:43;;;;;;;11.73;3.88;;;;;;;16.30;100.00;101489.19;6241641;28;20045;-73
2023/07/14 05:59:45;;;;;;;9.88;4.15;;;;;;;16.31;100.00;101481.16;6253039;28;20050;-73
2023/07/14 06:02:50;;;;;;;7.70;3.60;;;;;;;16.37;100.00;101480.72;6233813;28;20434;-73
2023/07/14 06:05:51;;;;;;;9.40;4.72;;;;;;;16.43;100.00;101479.47;6245595;28;20049;-73
2023/07/14 06:08:54;;;;;;;9.35;3.72;;;;;;;16.40;100.00;101477.88;6229586;28;20471;-72
2023/07/14 06:11:55;;;;;;;6.32;4.43;;;;;;;16.32;100.00;101466.06;6245649;28;20060;-73
2023/07/14 06:14:56;;;;;;;6.15;3.67;;;;;;;16.33;100.00;101468.63;6252743;28;20041;-73
2023/07/14 06:17:59;;;;;;;6.63;4.10;;;;;;;16.36;100.00;101460.47;6230172;28;20050;-74
2023/07/14 06:21:01;;;;;;;7.85;4.28;;;;;;;16.39;100.00;101470.84;6238303;28;20056;-72
2023/07/14 06:24:03;;;;;;;7.75;4.57;;;;;;;16.44;100.00;101467.88;6247965;28;20048;-73
2023/07/14 06:27:05;;;;;;;7.75;4.38;;;;;;;16.45;100.00;101464.31;6233293;28;20127;-73
2023/07/14 06:30:08;;;;;;;6.45;2.88;;;;;;;16.53;100.00;101467.28;6233513;28;20180;-73
2023/07/14 06:33:12;;;;;;;5.93;3.25;;;;;;;16.62;100.00;101464.03;6225610;28;20049;-73
2023/07/14 06:36:13;;;;;;;7.05;3.63;;;;;;;16.69;100.00;101462.66;6225343;28;20046;-73
2023/07/14 06:39:15;;;;;;;7.47;4.03;;;;;;;16.73;100.00;101466.84;6228607;28;20052;-73
2023/07/14 06:42:16;;;;;;;6.88;3.67;;;;;;;16.75;100.00;101458.75;6221596;28;20130;-73
2023/07/14 06:45:18;;;;;;;5.45;3.47;;;;;;;16.73;100.00;101452.72;6223943;28;20097;-73
2023/07/14 06:48:21;;;;;;;5.40;3.10;;;;;;;16.77;100.00;101456.88;6219040;28;20053;-73
2023/07/14 06:51:23;;;;;;;5.65;3.20;;;;;;;16.78;100.00;101453.25;6225138;28;20077;-73
2023/07/14 06:54:24;;;;;;;4.53;2.90;;;;;;;16.80;100.00;101447.81;6247204;28;20052;-73
2023/07/14 06:57:26;;;;;;;5.45;3.40;;;;;;;16.85;100.00;101457.19;6250524;28;20053;-73
2023/07/14 07:00:30;;;;;;;7.15;3.88;;;;;;;16.83;100.00;101453.78;6249988;28;20128;-73
2023/07/14 07:03:34;;;;;;;8.90;4.28;;;;;;;16.87;100.00;101468.56;6231207;28;20053;-73
2023/07/14 07:06:35;;;;;;;6.95;3.45;;;;;;;16.96;100.00;101467.06;6221674;28;20425;-73
2023/07/14 07:09:37;;;;;;;6.80;3.67;;;;;;;17.01;100.00;101462.28;6223429;28;20064;-73
2023/07/14 07:12:38;;;;;;;6.88;3.75;;;;;;;17.03;100.00;101462.19;6221227;28;20132;-73
2023/07/14 07:15:40;;;;;;;8.27;4.72;;;;;;;17.08;100.00;101458.28;6220759;28;20053;-73
2023/07/14 07:18:43;;;;;;;4.72;2.80;;;;;;;17.13;100.00;101452.66;6216685;28;20050;-74
2023/07/14 07:21:44;;;;;;;4.97;2.65;;;;;;;17.21;100.00;101456.47;6217538;28;20046;-72
2023/07/14 07:24:45;;;;;;;4.50;2.75;;;;;;;17.30;100.00;101443.47;6225032;28;20050;-73
2023/07/14 07:27:48;;;;;;;4.10;3.10;;;;;;;17.34;100.00;101434.31;6221978;28;20046;-73
2023/07/14 07:30:49;;;;;;;3.00;1.98;;;;;;;17.39;100.00;101437.50;6235365;28;20080;-73
2023/07/14 07:33:52;;;;;;;4.28;1.92;;;;;;;17.44;100.00;101432.72;6247252;28;20054;-72
2023/07/14 07:36:53;;;;;;;5.85;2.88;;;;;;;17.53;100.00;101432.06;6243413;28;20426;-74
2023/07/14 07:39:56;;;;;;;5.30;2.67;;;;;;;17.64;100.00;101434.81;6216748;28;20053;-74
2023/07/14 07:42:57;;;;;;;8.32;1.80;;;;;;;17.64;100.00;101425.97;6246064;28;20049;-75
2023/07/14 07:45:59;;;;;;;3.70;1.75;;;;;;;17.69;100.00;101413.22;6237364;28;20053;-74
2023/07/14 07:49:01;;;;;;;2.08;1.27;;;;;;;17.75;100.00;101418.09;6239100;28;20528;-75
2023/07/14 07:52:03;;;;;;;4.18;1.85;;;;;;;17.80;100.00;101420.41;6248364;28;20155;-75
2023/07/14 07:55:05;;;;;;;3.30;1.40;;;;;;;17.84;100.00;101406.78;6230447;28;20042;-75
2023/07/14 07:58:07;;;;;;;4.60;1.83;;;;;;;17.87;100.00;101409.22;6215494;28;20060;-75
2023/07/14 08:01:20;;;;;;;1.85;1.30;;;;;;;17.91;100.00;101408.06;6223777;28;20054;-75
2023/07/14 08:04:22;;;;;;;1.83;1.25;;;;;;;17.98;100.00;101403.13;6246437;28;20174;-75
2023/07/14 08:07:24;;;;;;;7.13;1.75;;;;;;;18.09;100.00;101405.84;6244574;28;20053;-74
2023/07/14 08:10:25;;;;;;;3.45;1.60;;;;;;;18.19;100.00;101413.97;6230592;28;20461;-74
2023/07/14 08:13:28;;;;;;;2.88;1.65;;;;;;;18.29;100.00;101408.81;6247998;28;20046;-75
2023/07/14 08:16:30;;;;;;;3.20;1.50;;;;;;;18.32;100.00;101408.59;6250278;28;20049;-74
2023/07/14 08:19:33;;;;;;;2.90;1.83;;;;;;;18.41;100.00;101405.25;6250541;28;20049;-75
2023/07/14 08:22:34;;;;;;;3.47;1.80;;;;;;;18.48;100.00;101403.78;6250026;28;20041;-74
2023/07/14 08:25:37;;;;;;;2.63;1.73;;;;;;;18.54;100.00;101408.66;6238197;28;20045;-74
2023/07/14 08:28:38;;;;;;;3.90;1.60;;;;;;;18.65;100.00;101402.50;6232447;28;20132;-74
2023/07/14 08:31:39;;;;;;;3.20;1.50;;;;;;;18.68;100.00;101396.97;6249863;28;20046;-74
2023/07/14 08:34:42;;;;;;;4.88;1.58;;;;;;;18.69;100.00;101402.19;6253552;28;20046;-75
2023/07/14 08:37:44;;;;;;;2.70;1.30;;;;;;;18.70;100.00;101397.72;6254871;28;20351;-75
2023/07/14 08:40:51;;;;;;;3.03;1.70;;;;;;;18.83;100.00;101394.94;6255242;28;20060;-74
2023/07/14 08:44:17;;;;;;;1.85;1.40;;;;;;;18.98;100.00;101393.75;6235791;28;20457;-74
2023/07/14 08:47:24;;;;;;;3.38;1.70;;;;;;;19.12;100.00;101404.19;6234118;28;20041;-76
2023/07/14 08:50:30;;;;;;;2.78;1.60;;;;;;;19.13;100.00;101391.72;6247789;28;20050;-74
2023/07/14 08:53:32;;;;;;;2.63;1.40;;;;;;;19.12;100.00;101379.31;6227418;28;20050;-74
2023/07/14 08:56:37;;;;;;;3.15;1.40;;;;;;;19.20;100.00;101380.41;6230327;28;20050;-74
2023/07/14 08:59:41;;;;;;;3.25;1.60;;;;;;;19.27;100.00;101378.97;6244828;28;20079;-75
2023/07/14 09:02:50;;;;;;;3.35;1.33;;;;;;;19.34;100.00;101379.31;6242982;28;20050;-75
2023/07/14 09:05:55;;;;;;;2.78;1.45;;;;;;;19.47;100.00;101368.53;6229861;28;20046;-75
2023/07/14 09:08:57;;;;;;;2.92;1.45;;;;;;;19.53;100.00;101376.03;6224286;28;20046;-74
2023/07/14 09:12:10;;;;;;;2.40;1.27;;;;;;;19.59;100.00;101374.69;6247091;28;20045;-74
2023/07/14 09:15:19;;;;;;;2.38;1.10;;;;;;;19.55;100.00;101366.09;6252837;28;20045;-74
2023/07/14 09:18:36;;;;;;;3.22;1.50;;;;;;;19.57;100.00;101355.28;6235699;28;20042;-76
2023/07/14 09:21:44;;;;;;;3.75;1.52;;;;;;;19.56;100.00;101365.09;6234288;28;20085;-77
2023/07/14 09:24:57;;;;;;;5.00;1.90;;;;;;;19.67;100.00;101358.94;6227923;28;20061;-75
2023/07/14 09:27:59;;;;;;;4.22;1.67;;;;;;;19.76;100.00;101364.38;6233289;28;20050;-76
2023/07/14 09:31:05;;;;;;;3.58;1.30;;;;;;;19.81;100.00;101366.66;6235422;28;20057;-74
2023/07/14 09:34:15;;;;;;;2.60;1.33;;;;;;;19.88;100.00;101356.31;6237407;28;20371;-73
2023/07/14 09:37:21;;;;;;;2.80;1.02;;;;;;;19.95;100.00;101355.69;6235116;28;20456;-73
2023/07/14 09:40:25;;;;;;;6.38;2.17;;;;;;;19.94;100.00;101353.13;6240527;28;20084;-73
2023/07/14 09:43:26;;;;;;;2.42;1.30;;;;;;;19.98;100.00;101360.78;6234824;28;20454;-73
2023/07/14 09:46:38;;;;;;;3.08;1.40;;;;;;;19.99;100.00;101353.63;6234342;28;20042;-73
2023/07/14 09:49:41;;;;;;;5.47;1.52;;;;;;;20.18;100.00;101348.44;6239508;28;20049;-74
2023/07/14 09:52:53;;;;;;;6.13;1.67;;;;;;;20.22;100.00;101346.34;6252937;28;20049;-74
2023/07/14 09:55:58;;;;;;;2.72;1.55;;;;;;;20.15;100.00;101342.50;6253388;28;20048;-74
2023/07/14 09:59:02;;;;;;;5.25;1.50;;;;;;;20.10;100.00;101334.88;6253166;28;20053;-74
2023/07/14 10:02:15;;;;;;;3.75;1.55;;;;;;;20.27;100.00;101328.13;6240247;28;20077;-75
2023/07/14 10:05:37;;;;;;;4.50;1.40;;;;;;;20.36;100.00;101321.16;6239885;28;20081;-74
2023/07/14 10:08:47;;;;;;;1.45;1.02;;;;;;;20.47;100.00;101324.59;6252967;28;20042;-74
2023/07/14 10:11:51;;;;;;;1.80;1.30;;;;;;;20.55;100.00;101309.75;6252246;28;20060;-73
2023/07/14 10:14:53;;;;;;;2.63;1.20;;;;;;;20.64;100.00;101308.97;6237032;28;20103;-74
2023/07/14 10:17:55;;;;;;;5.15;1.48;;;;;;;20.84;100.00;101305.38;6252634;28;20041;-73
2023/07/14 10:21:02;;;;;;;3.83;1.50;;;;;;;20.92;100.00;101299.38;6252804;28;20052;-73
2023/07/14 10:24:14;;;;;;;2.80;1.40;;;;;;;21.00;100.00;101305.72;6251962;28;20053;-73
2023/07/14 10:27:19;;;;;;;3.15;1.48;;;;;;;20.99;100.00;101304.06;6242414;28;20045;-72
2023/07/14 10:30:36;;;;;;;2.35;1.42;;;;;;;20.89;100.00;101303.19;6217049;28;20049;-73
2023/07/14 10:33:48;;;;;;;2.75;1.08;;;;;;;20.82;100.00;101294.00;6224443;28;20050;-74
2023/07/14 10:36:53;;;;;;;5.40;1.40;;;;;;;20.79;100.00;101288.91;6211276;28;20043;-74
2023/07/14 10:40:00;;;;;;;5.68;1.90;;;;;;;21.00;100.00;101288.84;6212750;28;20042;-75
2023/07/14 10:43:09;;;;;;;2.25;1.48;;;;;;;21.21;100.00;101294.09;6211809;28;20055;-74
2023/07/14 10:46:15;;;;;;;3.00;1.50;;;;;;;21.22;100.00;101293.13;6230376;28;20042;-74
2023/07/14 10:49:24;;;;;;;2.38;1.17;;;;;;;21.18;100.00;101286.38;6241212;28;20057;-73
2023/07/14 10:52:31;;;;;;;4.82;1.20;;;;;;;21.13;100.00;101275.25;6227212;28;20354;-73
2023/07/14 10:55:38;;;;;;;2.72;1.60;;;;;;;21.44;100.00;101279.56;6241343;28;20046;-73
2023/07/14 10:58:44;;;;;;;6.90;1.40;;;;;;;21.53;100.00;101281.41;6243153;23;20354;-70
2023/07/14 11:01:57;;;;;;;2.42;1.30;;;;;;;21.52;100.00;101278.84;6199363;28;20050;-71
2023/07/14 11:05:03;;;;;;;5.93;1.92;;;;;;;21.47;100.00;101283.78;6203064;28;20057;-70
2023/07/14 11:08:05;;;;;;;2.38;1.65;;;;;;;21.37;100.00;101277.56;6204479;28;20046;-71
2023/07/14 11:11:16;;;;;;;2.72;1.30;;;;;;;21.25;100.00;101264.28;6209174;28;20081;-70
2023/07/14 11:14:25;;;;;;;2.92;1.23;;;;;;;21.20;100.00;101266.53;6201916;28;20442;-70
2023/07/14 11:17:28;;;;;;;;;;;;;;;21.14;100.00;101255.56;6202815;28;20323;-71
2023/07/14 11:20:45;;;;;;;6.18;2.13;;;;;;;21.05;100.00;101254.56;6321916;27;20377;-71
2023/07/14 11:23:57;;;;;;;2.20;1.20;;;;;;;21.01;100.00;101256.66;6321723;28;20078;-71
2023/07/14 11:27:21;;;;;;;1.80;1.42;;;;;;;21.03;100.00;101253.84;6321572;28;20347;-71
2023/07/14 11:30:29;;;;;;;3.58;1.55;;;;;;;21.02;100.00;101250.31;6296727;28;20037;-71
2023/07/14 11:33:40;;;;;;;3.05;1.35;;;;;;;20.99;100.00;101237.25;6296055;28;20045;-71
2023/07/14 11:36:52;;;;;;;2.45;1.23;;;;;;;21.17;100.00;101244.59;6279866;28;20045;-71
2023/07/14 11:39:57;;;;;;;1.83;1.10;;;;;;;21.40;100.00;101230.00;6290057;28;20048;-71
2023/07/14 11:43:01;;;;;;;1.55;1.10;;;;;;;21.56;100.00;101232.13;6294843;28;20052;-71
2023/07/14 11:46:05;;;;;;;3.42;1.60;;;;;;;21.86;100.00;101232.94;6295963;28;20060;-71
2023/07/14 11:49:21;;;;;;;2.38;1.38;;;;;;;22.21;100.00;101226.97;6285748;28;20055;-71
2023/07/14 11:52:27;;;;;;;3.30;1.20;;;;;;;22.51;100.00;101233.91;6291110;28;20055;-71
2023/07/14 11:55:30;;;;;;;3.05;1.58;;;;;;;22.38;100.00;101220.84;6278917;28;20052;-71
2023/07/14 11:58:31;;;;;;;1.88;1.20;;;;;;;22.19;100.00;101215.56;6288832;28;20045;-70
2023/07/14 12:01:33;;;;;;;2.05;1.33;;;;;;;22.15;100.00;101225.72;6290095;28;20461;-70
2023/07/14 12:04:35;;;;;;;1.27;1.10;;;;;;;22.20;100.00;101207.38;6280049;28;20534;-70
2023/07/14 12:08:13;;;;;;;2.70;1.35;;;;;;;22.62;100.00;101203.38;6293908;28;20049;-70
2023/07/14 12:11:26;;;;;;;7.17;1.47;;;;;;;22.69;95.65;101209.84;6286788;28;20059;-70
2023/07/14 12:14:45;;;;;;;2.47;1.58;;;;;;;22.61;95.21;101202.56;6295066;28;20591;-69
2023/07/14 12:17:47;;;;;;;;;;;;;;;22.51;96.08;101197.25;6295690;28;20055;-70
2023/07/14 12:20:50;;;;;;;2.47;1.40;;;;;;;22.70;93.98;101185.59;6292322;28;19920;-70
2023/07/14 12:23:55;;;;;;;2.95;1.60;;;;;;;23.02;89.68;101189.66;6294832;28;20048;-71
2023/07/14 12:27:13;;;;;;;2.60;1.50;;;;;;;23.29;91.99;101186.88;6294995;28;20045;-70
2023/07/14 12:30:20;;;;;;;4.85;1.98;;;;;;;23.39;84.06;101183.28;6280471;28;20052;-70
2023/07/14 12:33:24;;;;;;;3.30;1.65;;;;;;;23.16;79.95;101180.22;6278080;28;20053;-71
2023/07/14 12:36:29;;;;;;;2.65;1.50;;;;;;;23.01;86.35;101163.84;6278187;28;20048;-72
2023/07/14 12:39:32;;;;;;;4.47;1.67;;;;;;;23.08;85.13;101151.53;6277098;28;20120;-71
2023/07/14 12:42:33;;;;;;;4.57;1.90;;;;;;;23.08;71.42;101153.34;6278103;28;20049;-71
2023/07/14 12:45:35;;;;;;;3.53;1.50;;;;;;;23.15;74.66;101149.06;6270300;28;20053;-71
2023/07/14 12:48:37;;;;;;;2.35;1.38;;;;;;;23.31;65.56;101148.38;6268166;28;20037;-71
2023/07/14 12:51:38;;;;;;;2.60;1.50;;;;;;;23.47;66.58;101143.13;6275906;28;20044;-71
2023/07/14 12:54:45;;;;;;;2.53;1.50;;;;;;;23.47;69.47;101135.06;6277657;28;20048;-71
2023/07/14 12:57:48;;;;;;;3.50;1.83;;;;;;;23.46;68.49;101136.91;6269897;28;20045;-70
2023/07/14 13:00:54;;;;;;;4.38;1.55;;;;;;;23.71;70.88;101127.25;6275792;28;20570;-70
2023/07/14 13:03:56;;;;;;;3.72;1.90;;;;;;;24.12;65.65;101118.53;6277276;28;20052;-71
2023/07/14 13:07:05;;;;;;;4.80;2.03;;;;;;;24.52;65.02;101132.16;6277609;28;20049;-71
2023/07/14 13:10:17;;;;;;;2.05;1.33;;;;;;;24.56;62.59;101113.88;6277670;28;20063;-71
2023/07/14 13:13:21;;;;;;;1.77;1.50;;;;;;;24.70;65.38;101123.97;6277258;28;20037;-71
2023/07/14 13:16:28;;;;;;;3.90;1.60;;;;;;;24.66;59.30;101129.84;6277588;28;20048;-71
2023/07/14 13:19:35;;;;;;;5.70;1.52;;;;;;;24.56;62.22;101121.94;6273237;28;20037;-71
2023/07/14 13:22:37;;;;;;;2.60;1.33;;;;;;;24.46;67.52;101110.50;6274806;28;20080;-70
2023/07/14 13:25:43;;;;;;;3.22;1.50;;;;;;;24.41;65.61;101104.78;6277026;28;20052;-71
2023/07/14 13:28:56;;;;;;;3.47;1.70;;;;;;;24.23;61.53;101105.69;6277182;28;20133;-71
2023/07/14 13:32:01;;;;;;;3.30;1.85;;;;;;;24.04;63.87;101112.16;6269093;28;20051;-71
2023/07/14 13:35:09;;;;;;;2.38;1.20;;;;;;;24.22;60.36;101103.16;6277167;28;20048;-71
2023/07/14 13:38:15;;;;;;;3.28;1.90;;;;;;;24.74;57.34;101098.44;6276813;28;20044;-71
2023/07/14 13:41:21;;;;;;;2.40;1.35;;;;;;;25.09;54.65;101090.28;6276378;28;20041;-71
2023/07/14 13:44:43;;;;;;;3.53;1.52;;;;;;;24.90;56.33;101091.44;6276373;28;20045;-71
2023/07/14 13:47:48;;;;;;;7.30;1.40;;;;;;;24.71;54.16;101079.16;6276025;28;20044;-72
2023/07/14 13:50:50;;;;;;;4.15;1.88;;;;;;;24.76;54.33;101077.63;6275931;28;20041;-71
2023/07/14 13:53:52;;;;;;;5.75;1.60;;;;;;;24.92;54.16;101067.91;6276305;28;20361;-71
2023/07/14 13:56:55;;;;;;;2.55;1.40;;;;;;;24.84;50.88;101071.41;6276334;28;20460;-72
2023/07/14 13:59:57;;;;;;;2.83;1.45;;;;;;;24.64;52.49;101059.31;6276424;28;20045;-73
2023/07/14 14:03:00;;;;;;;1.88;1.20;;;;;;;24.76;52.42;101055.28;6275847;28;20508;-72
2023/07/14 14:06:02;;;;;;;4.55;1.67;;;;;;;24.82;57.29;101062.69;6268205;28;20079;-71
2023/07/14 14:09:05;;;;;;;4.40;2.35;;;;;;;24.84;54.69;101054.44;6269590;28;20056;-72